createdAt,value
2019-04-12T00:01:49.501Z,6.47
2019-04-12T00:04:15.893Z,5.80
2019-04-12T00:06:42.224Z,6.17
2019-04-12T00:09:08.758Z,6.00
2019-04-12T00:11:35.191Z,6.30
2019-04-12T00:14:02.241Z,6.90
2019-04-12T00:16:28.514Z,6.97
2019-04-12T00:18:54.912Z,5.43
2019-04-12T00:21:21.332Z,6.43
2019-04-12T00:23:47.662Z,8.93
2019-04-12T00:26:15.936Z,6.03
2019-04-12T00:28:42.519Z,5.87
2019-04-12T00:31:08.905Z,5.57
2019-04-12T00:33:35.364Z,6.33
2019-04-12T00:36:01.876Z,8.27
2019-04-12T00:38:28.194Z,5.70
2019-04-12T00:40:54.739Z,5.70
2019-04-12T00:43:21.496Z,5.57
2019-04-12T00:45:48.015Z,5.47
2019-04-12T00:48:14.449Z,6.10
2019-04-12T00:50:41.677Z,7.20
2019-04-12T00:53:11.048Z,6.50
2019-04-12T00:55:36.918Z,6.30
2019-04-12T00:58:03.252Z,6.03
2019-04-12T01:00:31.746Z,6.30
2019-04-12T01:02:59.979Z,5.53
2019-04-12T01:05:34.332Z,5.93
2019-04-12T01:08:02.526Z,6.00
2019-04-12T01:10:29.445Z,6.10
2019-04-12T01:12:57.371Z,6.00
2019-04-12T01:15:23.950Z,6.00
2019-04-12T01:17:50.619Z,6.37
2019-04-12T01:20:17.027Z,6.53
2019-04-12T01:22:43.553Z,6.50
2019-04-12T01:25:13.283Z,6.93
2019-04-12T01:27:38.210Z,6.00
2019-04-12T01:30:05.311Z,6.50
2019-04-12T01:32:31.641Z,6.60
2019-04-12T01:34:57.971Z,6.37
2019-04-12T01:37:24.302Z,6.07
2019-04-12T01:39:50.634Z,7.13
2019-04-12T01:42:17.145Z,7.00
2019-04-12T01:44:44.670Z,6.50
2019-04-12T01:47:10.906Z,6.40
2019-04-12T01:49:37.238Z,5.87
2019-04-12T01:52:03.546Z,5.90
2019-04-12T01:54:29.944Z,5.57
2019-04-12T01:56:56.276Z,6.90
2019-04-12T01:59:22.606Z,6.90
2019-04-12T02:01:48.935Z,5.87
2019-04-12T02:04:15.266Z,5.33
2019-04-12T02:06:41.595Z,5.63
2019-04-12T02:09:07.822Z,5.73
2019-04-12T02:11:34.151Z,5.80
2019-04-12T02:14:00.803Z,5.90
2019-04-12T02:16:27.123Z,5.60
2019-04-12T02:18:53.450Z,7.47
2019-04-12T02:21:19.706Z,5.40
2019-04-12T02:23:46.111Z,5.80
2019-04-12T02:26:13.372Z,5.43
2019-04-12T02:28:54.860Z,5.20
2019-04-12T02:31:30.300Z,5.17
2019-04-12T02:33:56.626Z,4.43
2019-04-12T02:36:28.694Z,4.67
2019-04-12T02:38:55.028Z,5.10
2019-04-12T02:41:22.681Z,4.93
2019-04-12T02:43:50.126Z,4.70
2019-04-12T02:46:18.107Z,5.20
2019-04-12T02:48:50.068Z,6.40
2019-04-12T02:51:23.364Z,4.80
2019-04-12T02:53:59.462Z,5.03
2019-04-12T02:56:28.187Z,5.17
2019-04-12T02:59:00.486Z,5.37
2019-04-12T03:01:27.625Z,4.67
2019-04-12T03:03:55.816Z,4.57
2019-04-12T03:06:22.540Z,4.33
2019-04-12T03:08:48.974Z,5.50
2019-04-12T03:11:17.227Z,4.90
2019-04-12T03:13:44.348Z,4.43
2019-04-12T03:16:11.753Z,4.73
2019-04-12T03:18:39.005Z,4.77
2019-04-12T03:21:05.539Z,4.67
2019-04-12T03:23:31.973Z,4.13
2019-04-12T03:25:58.726Z,4.60
2019-04-12T03:28:25.354Z,4.47
2019-04-12T03:30:52.154Z,4.13
2019-04-12T03:33:18.728Z,4.47
2019-04-12T03:35:45.349Z,4.20
2019-04-12T03:38:11.899Z,4.17
2019-04-12T03:40:38.238Z,4.30
2019-04-12T03:43:04.690Z,3.93
2019-04-12T03:45:31.370Z,4.90
2019-04-12T03:47:58.294Z,4.23
2019-04-12T03:50:24.680Z,4.30
2019-04-12T03:52:51.111Z,5.47
2019-04-12T03:55:17.448Z,4.50
2019-04-12T03:57:44.079Z,4.10
2019-04-12T04:00:12.742Z,5.00
2019-04-12T04:02:39.414Z,4.77
2019-04-12T04:05:06.348Z,4.20
2019-04-12T04:07:33.087Z,4.40
2019-04-12T04:10:00.455Z,4.87
2019-04-12T04:12:26.898Z,4.63
2019-04-12T04:14:53.513Z,4.70
2019-04-12T04:17:22.180Z,4.77
2019-04-12T04:19:50.683Z,4.47
2019-04-12T04:22:17.468Z,5.93
2019-04-12T04:24:45.991Z,5.60
2019-04-12T04:27:17.164Z,5.53
2019-04-12T04:29:45.935Z,5.20
2019-04-12T04:32:20.979Z,5.17
2019-04-12T04:34:47.675Z,4.97
2019-04-12T04:37:14.243Z,5.57
2019-04-12T04:39:40.984Z,4.67
2019-04-12T04:42:07.637Z,5.20
2019-04-12T04:44:34.128Z,6.50
2019-04-12T04:47:00.690Z,5.10
2019-04-12T04:49:27.684Z,5.43
2019-04-12T04:51:54.481Z,5.20
2019-04-12T04:54:21.215Z,5.43
2019-04-12T04:56:47.686Z,6.87
2019-04-12T04:59:14.335Z,5.10
2019-04-12T05:01:41.026Z,5.03
2019-04-12T05:04:07.700Z,5.27
2019-04-12T05:06:34.722Z,5.20
2019-04-12T05:09:01.354Z,5.13
2019-04-12T05:11:27.985Z,5.83
2019-04-12T05:13:54.726Z,5.40
2019-04-12T05:16:21.362Z,5.00
2019-04-12T05:18:47.997Z,5.83
2019-04-12T05:21:14.537Z,5.67
2019-04-12T05:23:41.011Z,5.20
2019-04-12T05:26:07.606Z,6.03
2019-04-12T05:28:34.041Z,5.57
2019-04-12T05:31:00.232Z,5.90
2019-04-12T05:33:28.427Z,4.97
2019-04-12T05:35:55.286Z,7.47
2019-04-12T05:38:21.926Z,4.97
2019-04-12T05:40:48.352Z,4.60
2019-04-12T05:43:14.745Z,4.70
2019-04-12T05:45:58.011Z,4.50
2019-04-12T05:48:36.305Z,4.43
2019-04-12T05:51:02.654Z,5.83
2019-04-12T05:53:31.147Z,4.07
2019-04-12T05:55:57.465Z,4.53
2019-04-12T05:58:26.048Z,3.43
2019-04-12T06:01:00.064Z,5.07
2019-04-12T06:03:28.047Z,4.27
2019-04-12T06:05:54.766Z,4.90
2019-04-12T06:08:21.242Z,4.10
2019-04-12T06:10:47.652Z,3.70
2019-04-12T06:13:15.186Z,3.70
2019-04-12T06:15:44.106Z,5.67
2019-04-12T06:18:11.139Z,4.40
2019-04-12T06:20:41.191Z,4.13
2019-04-12T06:23:07.889Z,4.47
2019-04-12T06:25:36.096Z,4.30
2019-04-12T06:28:02.696Z,3.60
2019-04-12T06:30:37.017Z,4.17
2019-04-12T06:33:04.016Z,3.60
2019-04-12T06:35:30.291Z,4.17
2019-04-12T06:37:56.823Z,3.67
2019-04-12T06:40:23.232Z,3.83
2019-04-12T06:42:49.690Z,4.10
2019-04-12T06:45:16.244Z,3.30
2019-04-12T06:47:42.554Z,5.53
2019-04-12T06:50:11.465Z,4.33
2019-04-12T06:52:37.915Z,4.60
2019-04-12T06:55:09.965Z,3.63
2019-04-12T06:57:36.275Z,4.43
2019-04-12T07:00:24.432Z,3.70
2019-04-12T07:02:55.557Z,3.93
2019-04-12T07:05:21.901Z,3.70
2019-04-12T07:07:48.325Z,4.77
2019-04-12T07:10:14.753Z,3.50
2019-04-12T07:12:41.084Z,4.00
2019-04-12T07:15:07.722Z,3.93
2019-04-12T07:17:33.940Z,3.73
2019-04-12T07:20:00.247Z,3.80
2019-04-12T07:22:27.504Z,4.33
2019-04-12T07:24:53.866Z,4.00
2019-04-12T07:27:20.198Z,3.93
2019-04-12T07:29:46.527Z,4.17
2019-04-12T07:32:12.926Z,3.57
2019-04-12T07:34:39.201Z,4.20
2019-04-12T07:37:05.514Z,4.07
2019-04-12T07:39:32.064Z,4.30
2019-04-12T07:41:58.367Z,5.73
2019-04-12T07:44:24.713Z,7.20
2019-04-12T07:46:51.039Z,4.90
2019-04-12T07:49:17.335Z,3.50
2019-04-12T07:51:54.555Z,3.93
2019-04-12T07:54:38.220Z,3.53
2019-04-12T07:57:12.513Z,3.50
2019-04-12T07:59:38.941Z,3.80
2019-04-12T08:02:13.563Z,3.97
2019-04-12T08:04:44.835Z,3.50
2019-04-12T08:07:15.750Z,3.10
2019-04-12T08:09:42.608Z,3.73
2019-04-12T08:12:09.024Z,3.73
2019-04-12T08:14:35.693Z,4.00
2019-04-12T08:17:02.095Z,3.73
2019-04-12T08:19:28.849Z,3.40
2019-04-12T08:21:55.266Z,4.10
2019-04-12T08:24:21.597Z,3.80
2019-04-12T08:26:47.933Z,3.50
2019-04-12T08:29:14.208Z,3.63
2019-04-12T08:31:40.506Z,4.27
2019-04-12T08:34:06.921Z,5.67
2019-04-12T08:36:33.253Z,4.43
2019-04-12T08:38:59.581Z,4.03
2019-04-12T08:41:25.981Z,3.90
2019-04-12T08:43:54.158Z,3.67
2019-04-12T08:46:20.724Z,4.07
2019-04-12T08:48:46.966Z,4.37
2019-04-12T08:51:22.644Z,5.13
2019-04-12T08:53:41.374Z,5.87
2019-04-12T08:56:07.662Z,11.40
2019-04-12T08:58:34.047Z,7.23
2019-04-12T09:01:00.396Z,10.40
2019-04-12T09:03:27.836Z,12.50
2019-04-12T09:05:54.231Z,9.70
2019-04-12T09:08:20.527Z,10.60
2019-04-12T09:10:46.829Z,10.00
2019-04-12T09:13:13.355Z,6.53
2019-04-12T09:15:39.961Z,7.67
2019-04-12T09:18:06.543Z,7.00
2019-04-12T09:20:43.997Z,5.80
2019-04-12T09:23:12.201Z,6.10
2019-04-12T09:25:40.481Z,7.07
2019-04-12T09:28:09.555Z,6.57
2019-04-12T09:30:35.733Z,5.97
2019-04-12T09:33:02.309Z,5.83
2019-04-12T09:35:28.732Z,5.70
2019-04-12T09:37:55.060Z,4.90
2019-04-12T09:40:21.316Z,4.53
2019-04-12T09:42:47.720Z,4.50
2019-04-12T09:45:13.948Z,4.57
2019-04-12T09:47:40.279Z,4.27
2019-04-12T09:50:06.916Z,4.30
2019-04-12T09:52:33.144Z,4.17
2019-04-12T09:54:59.806Z,4.00
2019-04-12T09:57:26.114Z,3.87
2019-04-12T09:59:52.444Z,4.20
2019-04-12T10:02:18.978Z,4.40
2019-04-12T10:04:45.257Z,4.43
2019-04-12T10:07:11.638Z,4.30
2019-04-12T10:09:37.968Z,4.20
2019-04-12T10:12:04.292Z,4.67
2019-04-12T10:14:30.734Z,4.60
2019-04-12T10:16:57.625Z,4.50
2019-04-12T10:19:24.109Z,4.53
2019-04-12T10:21:50.542Z,5.00
2019-04-12T10:24:18.736Z,4.53
2019-04-12T10:26:44.947Z,4.43
2019-04-12T10:29:11.280Z,4.40
2019-04-12T10:31:37.821Z,4.33
2019-04-12T10:34:04.204Z,4.10
2019-04-12T10:36:30.576Z,4.33
2019-04-12T10:39:07.766Z,4.17
2019-04-12T10:41:34.714Z,4.60
2019-04-12T10:44:22.541Z,4.40
2019-04-12T10:46:50.811Z,4.30
2019-04-12T10:49:33.737Z,4.87
2019-04-12T10:52:01.965Z,4.37
2019-04-12T10:54:46.875Z,4.40
2019-04-12T10:57:13.140Z,4.57
2019-04-12T10:59:39.536Z,4.77
2019-04-12T11:02:05.864Z,3.90
2019-04-12T11:04:32.199Z,4.47
2019-04-12T11:06:58.510Z,4.63
2019-04-12T11:09:24.856Z,4.40
2019-04-12T11:11:51.197Z,5.73
2019-04-12T11:14:17.517Z,4.97
2019-04-12T11:16:43.849Z,4.70
2019-04-12T11:19:10.279Z,4.73
2019-04-12T11:21:36.610Z,4.70
2019-04-12T11:24:03.378Z,4.70
2019-04-12T11:26:29.989Z,4.20
2019-04-12T11:28:56.318Z,5.23
2019-04-12T11:31:22.650Z,4.70
2019-04-12T11:33:48.979Z,5.37
2019-04-12T11:36:15.245Z,7.57
2019-04-12T11:38:41.540Z,4.77
2019-04-12T11:41:07.871Z,5.10
2019-04-12T11:43:34.239Z,4.63
2019-04-12T11:46:01.056Z,4.60
2019-04-12T11:48:27.476Z,4.80
2019-04-12T11:50:53.752Z,4.70
2019-04-12T11:53:20.198Z,4.97
2019-04-12T11:55:48.159Z,6.07
2019-04-12T11:58:14.534Z,4.97
2019-04-12T12:00:48.855Z,5.23
2019-04-12T12:03:17.436Z,5.40
2019-04-12T12:05:51.347Z,6.00
2019-04-12T12:08:22.515Z,5.67
2019-04-12T12:10:50.764Z,6.07
2019-04-12T12:13:35.525Z,5.47
2019-04-12T12:16:03.800Z,6.47
2019-04-12T12:18:32.485Z,5.77
2019-04-12T12:20:58.775Z,6.43
2019-04-12T12:23:25.146Z,5.73
2019-04-12T12:25:51.479Z,6.23
2019-04-12T12:28:17.809Z,6.03
2019-04-12T12:30:44.102Z,6.63
2019-04-12T12:33:10.468Z,6.13
2019-04-12T12:35:36.799Z,6.27
2019-04-12T12:38:03.088Z,5.07
2019-04-12T12:40:29.394Z,8.83
2019-04-12T12:42:55.893Z,7.63
2019-04-12T12:45:22.223Z,6.00
2019-04-12T12:47:48.659Z,5.33
2019-04-12T12:50:15.089Z,4.70
2019-04-12T12:52:41.521Z,5.47
2019-04-12T12:55:08.365Z,5.13
2019-04-12T12:57:34.695Z,5.60
2019-04-12T13:00:01.130Z,5.50
2019-04-12T13:02:27.583Z,5.70
2019-04-12T13:04:55.818Z,4.90
2019-04-12T13:07:22.198Z,4.60
2019-04-12T13:09:48.469Z,5.03
2019-04-12T13:12:15.164Z,5.23
2019-04-12T13:14:41.882Z,4.60
2019-04-12T13:17:08.107Z,4.50
2019-04-12T13:19:34.845Z,4.53
2019-04-12T13:22:01.414Z,4.80
2019-04-12T13:24:28.216Z,4.43
2019-04-12T13:26:54.544Z,5.63
2019-04-12T13:29:20.883Z,4.80
2019-04-12T13:32:04.519Z,5.20
2019-04-12T13:34:41.468Z,6.10
2019-04-12T13:37:21.859Z,6.30
2019-04-12T13:39:50.051Z,7.17
2019-04-12T13:42:24.152Z,6.43
2019-04-12T13:44:50.476Z,7.57
2019-04-12T13:47:16.811Z,7.47
2019-04-12T13:49:43.140Z,6.70
2019-04-12T13:52:09.499Z,6.30
2019-04-12T13:54:35.899Z,6.27
2019-04-12T13:57:02.332Z,6.60
2019-04-12T13:59:28.661Z,6.40
2019-04-12T14:01:55.535Z,6.37
2019-04-12T14:04:22.041Z,7.03
2019-04-12T14:06:48.470Z,6.23
2019-04-12T14:09:14.815Z,6.20
2019-04-12T14:11:41.136Z,7.27
2019-04-12T14:14:07.466Z,5.60
2019-04-12T14:16:36.350Z,5.67
2019-04-12T14:19:01.986Z,5.90
2019-04-12T14:21:28.401Z,5.20
2019-04-12T14:23:54.632Z,4.73
2019-04-12T14:26:20.959Z,5.10
2019-04-12T14:28:47.289Z,4.90
2019-04-12T14:31:15.770Z,4.73
2019-04-12T14:33:46.815Z,4.87
2019-04-12T14:36:31.510Z,4.33
2019-04-12T14:38:58.009Z,4.70
2019-04-12T14:41:24.240Z,5.27
2019-04-12T14:44:07.562Z,4.63
2019-04-12T14:46:38.501Z,5.77
2019-04-12T14:49:04.926Z,5.17
2019-04-12T14:51:31.265Z,4.83
2019-04-12T14:53:57.595Z,4.70
2019-04-12T14:56:23.927Z,4.80
2019-04-12T14:58:50.313Z,4.27
2019-04-12T15:01:16.692Z,4.53
2019-04-12T15:03:42.971Z,4.60
2019-04-12T15:06:10.346Z,4.63
2019-04-12T15:08:36.639Z,5.10
2019-04-12T15:11:03.098Z,4.93
2019-04-12T15:13:29.465Z,4.87
2019-04-12T15:15:55.804Z,6.20
2019-04-12T15:18:22.118Z,4.37
2019-04-12T15:20:48.457Z,5.60
2019-04-12T15:23:14.786Z,4.87
2019-04-12T15:25:41.061Z,4.97
2019-04-12T15:28:07.445Z,4.80
2019-04-12T15:30:33.779Z,4.43
2019-04-12T15:33:00.115Z,5.70
2019-04-12T15:35:28.044Z,5.00
2019-04-12T15:37:54.409Z,4.20
2019-04-12T15:40:20.738Z,4.40
2019-04-12T15:42:47.068Z,4.87
2019-04-12T15:45:13.718Z,4.63
2019-04-12T15:47:40.037Z,4.67
2019-04-12T15:50:06.981Z,4.67
2019-04-12T15:52:33.311Z,4.40
2019-04-12T15:54:59.641Z,4.63
2019-04-12T15:57:26.075Z,4.80
2019-04-12T15:59:52.303Z,4.70
2019-04-12T16:02:19.469Z,4.60
2019-04-12T16:04:46.322Z,5.03
2019-04-12T16:07:16.740Z,4.50
2019-04-12T16:09:46.947Z,4.70
2019-04-12T16:12:33.758Z,4.47
2019-04-12T16:15:04.246Z,4.30
2019-04-12T16:17:51.193Z,4.33
2019-04-12T16:20:17.457Z,5.83
2019-04-12T16:22:43.741Z,4.90
2019-04-12T16:25:10.491Z,4.70
2019-04-12T16:27:38.977Z,4.63
2019-04-12T16:30:14.105Z,3.90
2019-04-12T16:32:42.590Z,3.97
2019-04-12T16:35:17.319Z,3.90
2019-04-12T16:37:51.494Z,4.03
2019-04-12T16:40:20.023Z,4.60
2019-04-12T16:42:46.242Z,4.70
2019-04-12T16:45:13.000Z,4.13
2019-04-12T16:47:39.313Z,4.10
2019-04-12T16:50:06.314Z,4.00
2019-04-12T16:52:32.611Z,4.00
2019-04-12T16:54:59.025Z,4.07
2019-04-12T16:57:25.357Z,4.77
2019-04-12T16:59:51.942Z,4.00
2019-04-12T17:02:18.226Z,4.27
2019-04-12T17:04:44.661Z,4.30
2019-04-12T17:07:11.753Z,4.70
2019-04-12T17:09:38.352Z,5.03
2019-04-12T17:12:04.769Z,3.70
2019-04-12T17:14:31.301Z,4.00
2019-04-12T17:16:57.601Z,3.83
2019-04-12T17:19:23.966Z,4.67
2019-04-12T17:21:50.293Z,4.53
2019-04-12T17:24:16.726Z,4.20
2019-04-12T17:26:43.056Z,4.30
2019-04-12T17:29:09.387Z,3.70
2019-04-12T17:31:35.638Z,4.33
2019-04-12T17:34:02.256Z,3.77
2019-04-12T17:36:28.478Z,3.70
2019-04-12T17:38:54.912Z,4.10
2019-04-12T17:41:21.241Z,3.60
2019-04-12T17:43:47.574Z,3.50
2019-04-12T17:46:14.011Z,3.80
2019-04-12T17:48:44.938Z,3.93
2019-04-12T17:51:26.883Z,3.50
2019-04-12T17:53:55.030Z,3.60
2019-04-12T17:56:27.469Z,4.33
2019-04-12T17:58:49.622Z,3.77
2019-04-12T18:01:27.093Z,3.83
2019-04-12T18:03:55.350Z,3.90
2019-04-12T18:06:21.718Z,3.80
2019-04-12T18:08:48.049Z,3.67
2019-04-12T18:11:16.172Z,5.67
2019-04-12T18:13:42.473Z,3.60
2019-04-12T18:16:08.802Z,3.80
2019-04-12T18:18:41.071Z,3.47
2019-04-12T18:21:07.352Z,3.83
2019-04-12T18:23:33.709Z,3.80
2019-04-12T18:26:00.002Z,5.77
2019-04-12T18:28:26.370Z,3.90
2019-04-12T18:30:52.707Z,3.53
2019-04-12T18:33:19.132Z,3.70
2019-04-12T18:35:45.670Z,3.83
2019-04-12T18:38:12.410Z,3.53
2019-04-12T18:40:38.955Z,4.13
2019-04-12T18:43:05.376Z,3.70
2019-04-12T18:45:32.158Z,5.57
2019-04-12T18:47:58.856Z,4.90
2019-04-12T18:50:25.411Z,6.60
2019-04-12T18:52:51.839Z,7.87
2019-04-12T18:55:18.155Z,7.07
2019-04-12T18:57:44.487Z,10.13
2019-04-12T19:00:13.077Z,9.70
2019-04-12T19:02:39.478Z,7.20
2019-04-12T19:05:06.799Z,7.30
2019-04-12T19:07:33.147Z,8.27
2019-04-12T19:09:59.633Z,6.30
2019-04-12T19:12:26.053Z,5.40
2019-04-12T19:14:52.380Z,5.00
2019-04-12T19:17:23.726Z,5.20
2019-04-12T19:19:50.064Z,5.67
2019-04-12T19:22:16.492Z,6.53
2019-04-12T19:24:42.874Z,8.60
2019-04-12T19:27:09.192Z,4.37
2019-04-12T19:29:35.585Z,4.77
2019-04-12T19:32:12.680Z,4.77
2019-04-12T19:34:46.818Z,4.50
2019-04-12T19:37:27.070Z,5.33
2019-04-12T19:39:55.228Z,4.50
2019-04-12T19:42:21.718Z,4.33
2019-04-12T19:44:48.078Z,4.70
2019-04-12T19:47:14.405Z,4.70
2019-04-12T19:49:40.742Z,4.40
2019-04-12T19:52:08.263Z,5.17
2019-04-12T19:54:34.627Z,4.93
2019-04-12T19:57:01.064Z,5.90
2019-04-12T19:59:27.413Z,5.57
2019-04-12T20:01:53.686Z,5.33
2019-04-12T20:04:20.048Z,5.07
2019-04-12T20:06:46.494Z,4.83
2019-04-12T20:09:13.014Z,6.03
2019-04-12T20:11:39.451Z,5.00
2019-04-12T20:14:06.003Z,6.50
2019-04-12T20:16:32.642Z,5.63
2019-04-12T20:18:59.164Z,4.80
2019-04-12T20:21:25.590Z,5.00
2019-04-12T20:23:51.941Z,7.67
2019-04-12T20:26:18.268Z,6.00
2019-04-12T20:28:44.503Z,5.80
2019-04-12T20:31:11.218Z,6.07
2019-04-12T20:33:37.768Z,5.57
2019-04-12T20:36:04.314Z,7.40
2019-04-12T20:38:30.948Z,6.00
2019-04-12T20:40:57.592Z,5.77
2019-04-12T20:43:24.202Z,7.20
2019-04-12T20:45:50.942Z,5.87
2019-04-12T20:48:17.320Z,5.63
2019-04-12T20:50:43.705Z,7.03
2019-04-12T20:53:10.230Z,5.80
2019-04-12T20:55:36.674Z,6.10
2019-04-12T20:58:03.117Z,5.60
2019-04-12T21:00:29.396Z,5.83
2019-04-12T21:02:55.717Z,5.20
2019-04-12T21:05:22.150Z,5.60
2019-04-12T21:07:50.489Z,5.77
2019-04-12T21:10:16.910Z,4.93
2019-04-12T21:12:43.246Z,5.97
2019-04-12T21:15:11.563Z,6.27
2019-04-12T21:17:37.868Z,5.93
2019-04-12T21:20:05.320Z,5.03
2019-04-12T21:22:31.733Z,5.50
2019-04-12T21:24:58.424Z,6.00
2019-04-12T21:27:24.803Z,6.20
2019-04-12T21:29:51.133Z,6.50
2019-04-12T21:32:17.440Z,5.47
2019-04-12T21:34:44.067Z,6.47
2019-04-12T21:37:11.449Z,5.37
2019-04-12T21:39:38.107Z,6.20
2019-04-12T21:42:04.424Z,7.87
2019-04-12T21:44:30.856Z,5.20
2019-04-12T21:46:57.187Z,5.80
2019-04-12T21:49:23.636Z,5.77
2019-04-12T21:51:50.054Z,6.43
2019-04-12T21:54:16.383Z,5.60
2019-04-12T21:56:42.727Z,7.83
2019-04-12T21:59:08.969Z,6.10
2019-04-12T22:01:36.623Z,5.67
2019-04-12T22:04:03.142Z,5.60
2019-04-12T22:06:37.665Z,6.30
2019-04-12T22:09:05.032Z,6.47
2019-04-12T22:11:31.329Z,6.00
2019-04-12T22:13:57.886Z,7.03
2019-04-12T22:16:24.643Z,6.23
2019-04-12T22:18:51.058Z,7.13
2019-04-12T22:21:17.388Z,7.37
2019-04-12T22:23:43.930Z,6.80
2019-04-12T22:26:10.241Z,7.73
2019-04-12T22:28:36.792Z,6.20
2019-04-12T22:31:03.266Z,6.17
2019-04-12T22:33:29.570Z,7.37
2019-04-12T22:35:55.984Z,7.23
2019-04-12T22:38:22.417Z,6.30
2019-04-12T22:40:48.851Z,7.53
2019-04-12T22:43:15.383Z,6.37
2019-04-12T22:45:41.818Z,8.50
2019-04-12T22:48:08.250Z,6.90
2019-04-12T22:50:34.576Z,10.20
2019-04-12T22:53:00.913Z,6.87
2019-04-12T22:55:27.600Z,6.60
2019-04-12T22:57:53.954Z,6.87
2019-04-12T23:00:20.748Z,6.90
2019-04-12T23:02:47.154Z,8.90
2019-04-12T23:05:13.589Z,8.90
2019-04-12T23:07:39.918Z,8.93
2019-04-12T23:10:06.782Z,7.33
2019-04-12T23:12:33.198Z,9.40
2019-04-12T23:14:59.526Z,7.63
2019-04-12T23:17:26.168Z,9.20
2019-04-12T23:19:52.490Z,9.43
2019-04-12T23:22:18.822Z,8.63
2019-04-12T23:24:45.154Z,7.77
2019-04-12T23:27:11.484Z,6.97
2019-04-12T23:29:37.814Z,8.53
2019-04-12T23:32:06.007Z,7.07
2019-04-12T23:34:34.223Z,8.07
2019-04-12T23:37:00.593Z,6.70
2019-04-12T23:39:26.925Z,6.17
2019-04-12T23:41:53.254Z,10.30
2019-04-12T23:44:19.585Z,8.13
2019-04-12T23:46:45.913Z,8.80
2019-04-12T23:49:12.194Z,8.40
2019-04-12T23:51:38.572Z,8.93
2019-04-12T23:54:05.140Z,9.93
2019-04-12T23:56:31.539Z,7.97
2019-04-12T23:58:57.799Z,7.07
